Time;durP1;ratioP1;P1;durP2;ratioP2;P2;SDS_P1;SDS_P2;PMS_P1;PMS_P2;Temp;Humidity;BMP_temperature;BMP_pressure;BME280_temperature;BME280_humidity;BME280_pressure;Samples;Min_cycle;Max_cycle;Signal;HPM_P1;HPM_P2
2023/06/27 00:02:05;;;;;;;3.83;3.53;;;24.90;99.90;;;;;;5094189;28;20618;-77
2023/06/27 00:04:32;;;;;;;3.90;3.60;;;24.90;99.90;;;;;;5097552;27;20201;-76
2023/06/27 00:06:59;;;;;;;3.85;3.55;;;24.70;99.90;;;;;;5106268;27;20631;-75
2023/06/27 00:09:26;;;;;;;5.32;4.25;;;24.60;99.90;;;;;;5104792;27;20309;-76
2023/06/27 00:11:54;;;;;;;5.88;5.38;;;24.60;99.90;;;;;;5100856;27;20663;-76
2023/06/27 00:14:21;;;;;;;5.78;5.28;;;24.60;99.90;;;;;;5102711;27;20688;-75
2023/06/27 00:16:49;;;;;;;6.38;5.78;;;24.50;99.90;;;;;;5102211;27;20228;-76
2023/06/27 00:19:16;;;;;;;5.57;5.07;;;24.40;99.90;;;;;;5104593;27;20247;-75
2023/06/27 00:21:42;;;;;;;7.10;5.32;;;24.40;99.90;;;;;;5100036;27;20198;-75
2023/06/27 00:24:10;;;;;;;5.70;5.13;;;24.40;99.90;;;;;;5108930;27;20239;-76
2023/06/27 00:26:37;;;;;;;4.90;4.50;;;24.50;99.90;;;;;;5120729;27;20201;-76
2023/06/27 00:29:06;;;;;;;5.28;4.88;;;24.50;99.90;;;;;;5116505;27;20200;-76
2023/06/27 00:31:34;;;;;;;5.00;4.60;;;24.50;99.90;;;;;;5108926;27;20826;-75
2023/06/27 00:34:00;;;;;;;5.22;4.80;;;24.50;99.90;;;;;;5101429;27;20304;-76
2023/06/27 00:36:27;;;;;;;5.22;4.72;;;24.60;99.90;;;;;;5101042;27;20224;-74
2023/06/27 00:38:54;;;;;;;5.05;4.60;;;24.60;99.90;;;;;;5099779;27;20233;-75
2023/06/27 00:41:21;;;;;;;4.93;4.45;;;24.40;99.90;;;;;;5101447;27;20280;-76
2023/06/27 00:43:48;;;;;;;4.97;4.57;;;24.40;99.90;;;;;;5103015;27;20292;-76
2023/06/27 00:46:26;;;;;;;4.93;4.53;;;24.30;99.90;;;;;;5102979;27;20227;-76
2023/06/27 00:48:53;;;;;;;4.78;4.28;;;24.30;99.90;;;;;;5102020;27;20200;-75
2023/06/27 00:51:20;;;;;;;4.82;4.43;;;24.20;99.90;;;;;;5102190;27;20225;-75
2023/06/27 00:53:47;;;;;;;4.95;4.45;;;24.20;99.90;;;;;;5100423;27;20939;-75
2023/06/27 00:56:14;;;;;;;5.18;4.75;;;24.30;99.90;;;;;;5100602;27;20198;-75
2023/06/27 00:58:40;;;;;;;4.90;4.50;;;24.30;99.90;;;;;;5104261;27;20278;-76
2023/06/27 01:01:07;;;;;;;5.07;4.35;;;24.20;99.90;;;;;;5096877;27;20285;-76
2023/06/27 01:03:36;;;;;;;4.43;4.13;;;24.20;99.90;;;;;;5103743;27;20303;-76
2023/06/27 01:06:08;;;;;;;4.10;3.78;;;24.20;99.90;;;;;;5100167;27;20232;-76
2023/06/27 01:08:38;;;;;;;3.47;3.25;;;24.30;99.90;;;;;;5101235;27;20209;-76
2023/06/27 01:11:13;;;;;;;4.60;4.20;;;24.20;99.90;;;;;;5099949;27;20248;-76
2023/06/27 01:13:44;;;;;;;4.28;3.88;;;24.30;99.90;;;;;;5100794;27;20239;-76
2023/06/27 01:16:13;;;;;;;4.18;3.88;;;24.20;99.90;;;;;;5100564;27;20301;-76
2023/06/27 01:18:42;;;;;;;6.13;4.53;;;24.10;99.90;;;;;;5102731;27;20296;-75
2023/06/27 01:21:10;;;;;;;4.22;3.88;;;23.90;99.90;;;;;;5101541;27;20274;-76
2023/06/27 01:23:50;;;;;;;4.38;3.95;;;23.90;99.90;;;;;;5099314;27;20228;-75
2023/06/27 01:26:17;;;;;;;4.97;3.92;;;24.00;99.90;;;;;;5101308;27;20214;-76
2023/06/27 01:28:44;;;;;;;4.03;3.65;;;24.00;99.90;;;;;;5102608;27;20333;-76
2023/06/27 01:31:18;;;;;;;4.13;3.72;;;24.00;99.90;;;;;;5098318;27;20233;-76
2023/06/27 01:33:50;;;;;;;4.18;3.85;;;23.90;99.90;;;;;;5102177;27;20724;-75
2023/06/27 01:36:21;;;;;;;6.70;5.05;;;23.80;99.90;;;;;;5102738;27;20311;-75
2023/06/27 01:38:54;;;;;;;5.10;4.60;;;23.70;99.90;;;;;;5116568;27;20226;-76
2023/06/27 01:41:24;;;;;;;5.22;4.32;;;23.70;99.90;;;;;;5103722;27;20486;-76
2023/06/27 01:43:55;;;;;;;5.28;4.53;;;23.80;99.90;;;;;;5101109;27;20281;-75
2023/06/27 01:46:23;;;;;;;5.45;4.22;;;23.90;99.90;;;;;;5098588;27;20337;-76
2023/06/27 01:48:51;;;;;;;5.10;4.60;;;24.10;99.90;;;;;;5096599;27;20455;-76
2023/06/27 01:51:18;;;;;;;4.95;4.55;;;24.20;99.90;;;;;;5092960;27;20250;-76
2023/06/27 01:53:45;;;;;;;4.88;4.38;;;24.20;99.90;;;;;;5102195;27;20670;-76
2023/06/27 01:56:14;;;;;;;5.55;5.05;;;24.30;99.90;;;;;;5101191;27;20304;-76
2023/06/27 01:58:41;;;;;;;4.20;3.80;;;24.30;99.90;;;;;;5093016;27;20201;-76
2023/06/27 02:01:09;;;;;;;4.65;4.25;;;24.30;99.90;;;;;;5093007;27;20222;-75
2023/06/27 02:03:36;;;;;;;5.28;4.63;;;24.20;99.90;;;;;;5097008;27;20201;-76
2023/06/27 02:06:03;;;;;;;4.65;4.25;;;24.30;99.90;;;;;;5096305;27;20217;-76
2023/06/27 02:08:30;;;;;;;4.60;4.20;;;24.30;99.90;;;;;;5099566;27;20305;-76
2023/06/27 02:10:57;;;;;;;4.70;4.30;;;24.20;99.90;;;;;;5095947;27;20255;-76
2023/06/27 02:13:26;;;;;;;4.78;4.22;;;24.20;99.90;;;;;;5096272;27;20316;-75
2023/06/27 02:15:53;;;;;;;5.18;3.92;;;24.10;99.90;;;;;;5099728;27;20857;-76
2023/06/27 02:18:20;;;;;;;4.57;4.03;;;24.10;99.90;;;;;;5098253;27;20289;-74
2023/06/27 02:20:46;;;;;;;4.30;3.90;;;24.00;99.90;;;;;;5095692;27;20240;-76
2023/06/27 02:23:14;;;;;;;4.78;4.32;;;24.00;99.90;;;;;;5099833;27;20277;-76
2023/06/27 02:25:43;;;;;;;4.63;4.13;;;23.90;99.90;;;;;;5094777;27;20577;-77
2023/06/27 02:28:10;;;;;;;4.60;4.20;;;23.90;99.90;;;;;;5098338;27;20200;-76
2023/06/27 02:30:38;;;;;;;4.43;4.03;;;23.90;99.90;;;;;;5098862;27;20312;-75
2023/06/27 02:33:05;;;;;;;3.97;3.67;;;23.90;99.90;;;;;;5097717;27;20335;-75
2023/06/27 02:35:32;;;;;;;4.45;4.05;;;23.90;99.90;;;;;;5100141;27;20224;-76
2023/06/27 02:37:59;;;;;;;4.70;4.30;;;23.80;99.90;;;;;;5098957;27;20197;-76
2023/06/27 02:40:28;;;;;;;4.55;4.15;;;23.90;99.90;;;;;;5103751;27;20257;-76
2023/06/27 02:42:55;;;;;;;5.13;4.63;;;23.90;99.90;;;;;;5093035;27;20725;-76
2023/06/27 02:45:23;;;;;;;4.82;4.43;;;24.00;99.90;;;;;;5102335;27;21013;-76
2023/06/27 02:47:52;;;;;;;4.53;4.13;;;23.80;99.90;;;;;;5096320;27;20204;-76
2023/06/27 02:50:19;;;;;;;4.97;4.47;;;23.80;99.90;;;;;;5096246;27;20789;-74
2023/06/27 02:52:45;;;;;;;4.93;4.30;;;23.80;99.90;;;;;;5096508;27;20285;-76
2023/06/27 02:55:12;;;;;;;4.97;4.57;;;23.90;99.90;;;;;;5096170;27;20308;-75
2023/06/27 02:57:39;;;;;;;4.70;4.30;;;23.90;99.90;;;;;;5102259;27;20289;-75
2023/06/27 03:00:07;;;;;;;4.72;4.32;;;23.90;99.90;;;;;;5099644;28;20312;-75
2023/06/27 03:02:34;;;;;;;4.43;4.00;;;23.90;99.90;;;;;;5096173;27;20276;-77
2023/06/27 03:05:03;;;;;;;4.75;4.28;;;23.90;99.90;;;;;;5099960;28;20277;-76
2023/06/27 03:07:30;;;;;;;5.47;4.60;;;23.90;99.90;;;;;;5099899;28;20226;-76
2023/06/27 03:09:57;;;;;;;4.70;4.20;;;23.90;99.90;;;;;;5100210;28;20288;-75
2023/06/27 03:12:24;;;;;;;4.60;4.20;;;23.90;99.90;;;;;;5095139;28;20312;-75
2023/06/27 03:14:51;;;;;;;5.25;4.05;;;23.80;99.90;;;;;;5099991;28;20282;-75
2023/06/27 03:17:18;;;;;;;4.35;3.95;;;23.80;99.90;;;;;;5093534;28;20204;-76
2023/06/27 03:19:44;;;;;;;4.78;4.38;;;23.80;99.90;;;;;;5101492;28;20225;-76
2023/06/27 03:22:13;;;;;;;7.55;5.10;;;23.80;99.90;;;;;;5101683;28;20285;-74
2023/06/27 03:24:40;;;;;;;5.53;4.68;;;23.80;99.90;;;;;;5099649;28;20209;-76
2023/06/27 03:27:07;;;;;;;4.90;4.50;;;23.80;99.90;;;;;;5101626;28;20287;-75
2023/06/27 03:29:34;;;;;;;5.55;4.68;;;23.70;99.90;;;;;;5101783;28;20276;-75
2023/06/27 03:32:01;;;;;;;7.20;4.35;;;23.70;99.90;;;;;;5109160;28;20344;-75
2023/06/27 03:34:28;;;;;;;6.63;4.20;;;23.70;99.90;;;;;;5104237;28;20305;-76
2023/06/27 03:36:55;;;;;;;4.60;4.20;;;23.70;99.90;;;;;;5098417;28;20236;-75
2023/06/27 03:39:23;;;;;;;4.63;4.22;;;23.70;99.90;;;;;;5102431;28;20754;-75
2023/06/27 03:41:50;;;;;;;4.75;4.15;;;23.70;99.90;;;;;;5102757;27;20277;-75
2023/06/27 03:44:17;;;;;;;4.75;4.25;;;23.70;99.90;;;;;;5103682;27;20284;-75
2023/06/27 03:46:44;;;;;;;4.70;4.30;;;23.60;99.90;;;;;;5100989;27;20246;-75
2023/06/27 03:49:10;;;;;;;4.90;4.38;;;23.60;99.90;;;;;;5102718;27;20262;-75
2023/06/27 03:51:41;;;;;;;4.80;4.40;;;23.50;99.90;;;;;;5107815;27;20783;-76
2023/06/27 03:54:09;;;;;;;4.45;4.05;;;23.50;99.90;;;;;;5097244;27;20208;-75
2023/06/27 03:56:37;;;;;;;4.47;4.07;;;23.30;99.90;;;;;;5103956;27;20216;-75
2023/06/27 03:59:04;;;;;;;4.63;4.22;;;23.30;99.90;;;;;;5102628;27;20278;-75
2023/06/27 04:01:31;;;;;;;5.13;4.55;;;23.20;99.90;;;;;;5099123;27;20324;-74
2023/06/27 04:03:58;;;;;;;4.85;4.35;;;23.20;99.90;;;;;;5103801;27;20292;-75
2023/06/27 04:06:25;;;;;;;4.72;4.07;;;23.30;99.90;;;;;;5100207;27;20730;-75
2023/06/27 04:08:52;;;;;;;5.22;4.55;;;23.30;99.90;;;;;;5100769;27;20197;-76
2023/06/27 04:11:19;;;;;;;4.60;4.20;;;23.40;99.90;;;;;;5100890;27;20258;-75
2023/06/27 04:13:47;;;;;;;4.22;3.83;;;23.40;99.90;;;;;;5104274;27;20671;-76
2023/06/27 04:16:14;;;;;;;4.60;4.30;;;23.50;99.90;;;;;;5104888;27;20862;-75
2023/06/27 04:18:41;;;;;;;5.22;4.32;;;23.50;99.90;;;;;;5112645;27;20220;-76
2023/06/27 04:21:08;;;;;;;4.50;4.10;;;23.60;99.90;;;;;;5117109;27;20216;-75
2023/06/27 04:23:35;;;;;;;4.30;3.90;;;23.60;99.90;;;;;;5118810;27;20209;-75
2023/06/27 04:26:04;;;;;;;4.95;4.03;;;23.70;99.90;;;;;;5113901;27;20208;-75
2023/06/27 04:28:32;;;;;;;4.53;4.13;;;23.70;99.90;;;;;;5101345;27;20304;-75
2023/06/27 04:31:02;;;;;;;4.18;3.88;;;23.70;99.90;;;;;;5100540;27;20228;-76
2023/06/27 04:33:29;;;;;;;4.90;4.50;;;23.80;99.90;;;;;;5100201;27;22519;-75
2023/06/27 04:36:01;;;;;;;4.43;4.03;;;23.90;99.90;;;;;;5100707;27;20304;-76
2023/06/27 04:38:28;;;;;;;4.90;3.78;;;23.90;99.90;;;;;;5099856;27;20205;-76
2023/06/27 04:40:55;;;;;;;5.55;4.82;;;23.90;99.90;;;;;;5103572;27;20217;-75
2023/06/27 04:43:22;;;;;;;4.75;4.35;;;24.00;99.90;;;;;;5098412;27;20197;-75
2023/06/27 04:45:49;;;;;;;4.93;3.50;;;24.10;99.90;;;;;;5097756;27;22825;-75
2023/06/27 04:48:18;;;;;;;5.03;4.22;;;24.10;99.90;;;;;;5102056;27;20280;-76
2023/06/27 04:50:44;;;;;;;4.65;4.18;;;24.20;99.90;;;;;;5097596;27;20241;-75
2023/06/27 04:53:11;;;;;;;4.38;4.00;;;24.30;99.90;;;;;;5104668;27;20914;-76
2023/06/27 04:55:38;;;;;;;4.70;4.30;;;24.30;99.90;;;;;;5101160;27;20209;-75
2023/06/27 04:58:05;;;;;;;4.50;4.05;;;24.40;99.90;;;;;;5099340;27;20671;-76
2023/06/27 05:00:32;;;;;;;5.18;4.43;;;24.50;99.90;;;;;;5098012;27;20245;-75
2023/06/27 05:02:59;;;;;;;4.97;4.57;;;24.60;99.90;;;;;;5102707;27;20201;-76
2023/06/27 05:05:32;;;;;;;5.20;4.30;;;24.70;99.90;;;;;;5098093;27;20279;-76
2023/06/27 05:07:59;;;;;;;4.32;3.92;;;24.70;99.90;;;;;;5098160;27;20336;-75
2023/06/27 05:10:26;;;;;;;4.28;3.88;;;24.80;99.90;;;;;;5100148;27;20832;-75
2023/06/27 05:12:53;;;;;;;4.40;3.85;;;24.80;99.90;;;;;;5099298;27;20227;-75
2023/06/27 05:15:20;;;;;;;4.20;3.90;;;24.70;99.90;;;;;;5106349;27;20693;-75
2023/06/27 05:17:52;;;;;;;4.82;4.43;;;24.50;99.90;;;;;;5101145;27;21073;-74
2023/06/27 05:20:19;;;;;;;4.38;4.07;;;24.30;99.90;;;;;;5101388;27;20312;-75
2023/06/27 05:22:47;;;;;;;4.43;4.03;;;24.00;99.90;;;;;;5102333;27;20618;-76
2023/06/27 05:25:14;;;;;;;5.03;4.53;;;24.00;99.90;;;;;;5110945;27;20244;-73
2023/06/27 05:27:41;;;;;;;5.10;4.70;;;24.00;99.90;;;;;;5107211;27;20254;-75
2023/06/27 05:30:09;;;;;;;4.90;4.50;;;24.10;99.90;;;;;;5105781;27;20224;-75
2023/06/27 05:32:36;;;;;;;6.15;5.10;;;24.20;99.90;;;;;;5097445;27;20291;-75
2023/06/27 05:35:03;;;;;;;5.45;5.05;;;24.30;99.90;;;;;;5102708;27;20202;-75
2023/06/27 05:37:30;;;;;;;5.63;4.93;;;24.40;99.90;;;;;;5104355;27;20648;-75
2023/06/27 05:39:58;;;;;;;4.85;4.45;;;24.60;99.90;;;;;;5101756;27;20270;-75
2023/06/27 05:42:25;;;;;;;5.57;5.07;;;24.80;99.90;;;;;;5098399;27;20274;-75
2023/06/27 05:44:52;;;;;;;5.13;4.68;;;24.80;99.90;;;;;;5103677;27;20621;-75
2023/06/27 05:47:19;;;;;;;6.47;5.50;;;24.80;99.90;;;;;;5102833;27;20221;-74
2023/06/27 05:49:47;;;;;;;5.65;5.15;;;25.00;99.90;;;;;;5101475;27;20279;-75
2023/06/27 05:52:14;;;;;;;5.40;4.90;;;25.10;99.90;;;;;;5099925;27;20204;-75
2023/06/27 05:54:42;;;;;;;6.63;5.93;;;25.20;99.90;;;;;;5098734;27;20308;-75
2023/06/27 05:57:11;;;;;;;5.93;5.32;;;25.20;99.90;;;;;;5099139;27;20459;-75
2023/06/27 05:59:38;;;;;;;6.47;5.47;;;25.00;99.90;;;;;;5101770;27;20325;-75
2023/06/27 06:02:05;;;;;;;5.88;5.38;;;24.70;99.90;;;;;;5097689;27;20225;-75
2023/06/27 06:04:32;;;;;;;5.50;4.68;;;24.60;99.90;;;;;;5094516;27;20267;-74
2023/06/27 06:06:59;;;;;;;6.32;5.10;;;24.60;99.90;;;;;;5104156;27;20279;-75
2023/06/27 06:09:26;;;;;;;5.05;4.65;;;24.70;99.90;;;;;;5097969;27;20224;-74
2023/06/27 06:11:53;;;;;;;5.78;5.22;;;24.70;99.90;;;;;;5100025;27;20303;-75
2023/06/27 06:14:21;;;;;;;5.93;5.43;;;24.70;99.90;;;;;;5101201;27;20221;-75
2023/06/27 06:16:49;;;;;;;5.85;5.18;;;24.80;99.90;;;;;;5099182;27;20301;-74
2023/06/27 06:19:16;;;;;;;5.30;4.90;;;24.80;99.90;;;;;;5101244;27;20212;-75
2023/06/27 06:21:43;;;;;;;6.28;5.68;;;24.90;99.90;;;;;;5100987;27;20678;-75
2023/06/27 06:24:10;;;;;;;5.80;5.30;;;25.00;99.90;;;;;;5093588;27;20925;-75
2023/06/27 06:26:37;;;;;;;5.82;5.32;;;25.20;99.90;;;;;;5100879;27;20201;-75
2023/06/27 06:29:05;;;;;;;5.63;5.13;;;25.20;99.90;;;;;;5095376;27;20254;-76
2023/06/27 06:31:33;;;;;;;5.40;4.85;;;25.30;99.90;;;;;;5093982;27;20205;-75
2023/06/27 06:34:00;;;;;;;6.40;5.80;;;25.20;99.90;;;;;;5100433;28;20647;-75
2023/06/27 06:36:27;;;;;;;7.47;5.07;;;25.20;99.90;;;;;;5096716;27;20257;-77
2023/06/27 06:38:54;;;;;;;5.70;5.20;;;25.10;99.90;;;;;;5091493;28;20288;-75
2023/06/27 06:41:21;;;;;;;5.50;4.80;;;25.00;99.90;;;;;;5097491;27;20697;-74
2023/06/27 06:43:48;;;;;;;5.32;4.82;;;25.10;99.90;;;;;;5093864;27;20287;-73
2023/06/27 06:46:15;;;;;;;5.40;4.90;;;25.30;99.90;;;;;;5093794;27;20196;-75
2023/06/27 06:48:44;;;;;;;5.50;5.00;;;25.50;99.90;;;;;;5097483;27;20197;-74
2023/06/27 06:51:10;;;;;;;5.78;5.30;;;25.50;99.90;;;;;;5094984;27;20328;-74
2023/06/27 06:53:37;;;;;;;5.57;5.18;;;25.60;99.90;;;;;;5092269;28;20231;-75
2023/06/27 06:56:05;;;;;;;6.13;5.53;;;25.50;99.90;;;;;;5100172;27;20290;-74
2023/06/27 06:58:32;;;;;;;5.40;4.90;;;25.30;99.90;;;;;;5095755;27;20201;-73
2023/06/27 07:00:59;;;;;;;7.85;5.55;;;25.40;99.90;;;;;;5086981;27;20232;-73
2023/06/27 07:03:26;;;;;;;7.30;5.78;;;25.70;99.90;;;;;;5093325;28;20292;-79
2023/06/27 07:05:54;;;;;;;6.03;5.43;;;25.90;99.90;;;;;;5094978;27;20459;-77
2023/06/27 07:08:21;;;;;;;5.75;5.25;;;26.00;99.90;;;;;;5092808;28;20602;-77
2023/06/27 07:10:48;;;;;;;5.45;4.95;;;26.00;99.90;;;;;;5093864;28;20252;-77
2023/06/27 07:13:15;;;;;;;5.43;4.95;;;26.20;99.90;;;;;;5094358;28;20273;-78
2023/06/27 07:15:41;;;;;;;5.78;5.28;;;26.50;99.90;;;;;;5105617;27;20853;-77
2023/06/27 07:18:09;;;;;;;5.95;5.45;;;26.50;99.90;;;;;;5116909;27;20246;-78
2023/06/27 07:20:36;;;;;;;5.85;5.30;;;26.70;99.90;;;;;;5101016;27;20256;-78
2023/06/27 07:23:04;;;;;;;5.85;5.28;;;26.90;99.90;;;;;;5099150;27;21117;-78
2023/06/27 07:25:32;;;;;;;6.28;5.68;;;26.90;99.90;;;;;;5101114;27;20932;-77
2023/06/27 07:27:59;;;;;;;6.15;5.65;;;27.00;99.90;;;;;;5097534;27;20220;-77
2023/06/27 07:30:25;;;;;;;5.85;5.30;;;27.20;99.90;;;;;;5103688;27;20247;-79
2023/06/27 07:32:52;;;;;;;6.32;5.82;;;27.40;99.90;;;;;;5101086;27;20674;-78
2023/06/27 07:35:19;;;;;;;5.80;5.40;;;27.20;99.90;;;;;;5099697;27;20192;-77
2023/06/27 07:37:46;;;;;;;6.10;5.60;;;27.30;99.90;;;;;;5094014;27;20272;-77
2023/06/27 07:40:15;;;;;;;6.07;5.50;;;27.20;99.90;;;;;;5102297;27;20261;-78
2023/06/27 07:42:42;;;;;;;6.22;4.88;;;27.40;99.90;;;;;;5096066;27;20925;-77
2023/06/27 07:45:10;;;;;;;5.85;5.35;;;27.70;99.90;;;;;;5098009;27;20224;-78
2023/06/27 07:47:37;;;;;;;6.65;6.00;;;28.00;99.90;;;;;;5096213;27;20192;-78
2023/06/27 07:50:05;;;;;;;5.70;5.20;;;28.10;99.90;;;;;;5095583;28;20710;-77
2023/06/27 07:52:32;;;;;;;6.57;6.00;;;28.20;99.90;;;;;;5097864;27;20292;-77
2023/06/27 07:54:59;;;;;;;7.57;5.82;;;28.50;99.90;;;;;;5098247;27;20208;-77
2023/06/27 07:57:27;;;;;;;6.05;5.55;;;28.40;99.90;;;;;;5098826;27;20827;-79
2023/06/27 07:59:54;;;;;;;6.38;5.75;;;28.00;99.90;;;;;;5094018;27;20216;-78
2023/06/27 08:02:21;;;;;;;5.55;5.15;;;27.80;99.90;;;;;;5097423;27;20580;-77
2023/06/27 08:04:48;;;;;;;5.95;5.45;;;27.80;99.90;;;;;;5097143;27;20320;-78
2023/06/27 08:07:15;;;;;;;8.80;5.82;;;27.70;99.90;;;;;;5105352;27;20302;-78
2023/06/27 08:09:42;;;;;;;5.95;5.45;;;27.60;99.90;;;;;;5116801;27;20231;-78
2023/06/27 08:12:10;;;;;;;5.82;5.25;;;27.60;99.90;;;;;;5118346;27;20201;-79
2023/06/27 08:14:40;;;;;;;5.28;4.88;;;27.70;99.90;;;;;;5108695;27;20300;-78
2023/06/27 08:17:07;;;;;;;5.93;5.20;;;27.70;99.90;;;;;;5099195;27;20325;-78
2023/06/27 08:19:34;;;;;;;5.68;5.07;;;27.90;99.90;;;;;;5098933;27;20257;-77
2023/06/27 08:22:01;;;;;;;6.10;5.60;;;27.90;99.90;;;;;;5095518;27;20293;-77
2023/06/27 08:24:28;;;;;;;5.82;5.32;;;27.90;99.90;;;;;;5097842;27;20866;-78
2023/06/27 08:26:55;;;;;;;6.22;5.65;;;28.00;99.90;;;;;;5104420;27;20254;-78
2023/06/27 08:29:23;;;;;;;7.03;6.43;;;27.80;99.90;;;;;;5103642;27;20277;-77
2023/06/27 08:31:58;;;;;;;6.22;5.65;;;27.70;99.90;;;;;;5102769;27;20262;-78
2023/06/27 08:34:25;;;;;;;6.53;5.95;;;27.50;99.90;;;;;;5095564;27;20196;-77
2023/06/27 08:36:52;;;;;;;6.63;6.03;;;27.70;99.90;;;;;;5098401;27;20618;-77
2023/06/27 08:39:19;;;;;;;6.53;5.93;;;28.00;99.90;;;;;;5095824;27;20225;-77
2023/06/27 08:41:47;;;;;;;7.93;6.25;;;28.20;99.90;;;;;;5098191;27;20236;-77
2023/06/27 08:44:15;;;;;;;6.32;5.72;;;28.20;99.90;;;;;;5104128;27;20285;-78
2023/06/27 08:46:44;;;;;;;8.07;6.32;;;28.10;99.90;;;;;;5100594;27;20204;-78
2023/06/27 08:49:18;;;;;;;6.88;6.18;;;28.20;99.90;;;;;;5095578;27;20693;-78
2023/06/27 08:51:49;;;;;;;6.57;6.05;;;28.60;99.90;;;;;;5102705;27;20197;-77
2023/06/27 08:54:24;;;;;;;7.60;6.90;;;29.10;99.90;;;;;;5095376;27;20201;-76
2023/06/27 08:56:53;;;;;;;6.65;6.05;;;29.10;99.90;;;;;;5098690;27;20216;-76
2023/06/27 08:59:24;;;;;;;6.65;6.15;;;28.90;99.90;;;;;;5099482;27;20235;-78
2023/06/27 09:01:53;;;;;;;6.28;5.78;;;28.80;99.90;;;;;;5096445;27;20247;-76
2023/06/27 09:04:21;;;;;;;6.43;5.82;;;29.10;99.90;;;;;;5099656;27;20197;-77
2023/06/27 09:06:48;;;;;;;6.68;6.10;;;29.50;99.90;;;;;;5105450;27;20257;-76
2023/06/27 09:09:17;;;;;;;6.53;5.93;;;29.70;99.90;;;;;;5118421;27;20209;-78
2023/06/27 09:11:44;;;;;;;6.20;5.70;;;29.70;99.90;;;;;;5097535;27;20216;-77
2023/06/27 09:14:11;;;;;;;5.88;5.38;;;29.50;99.90;;;;;;5088659;27;20208;-77
2023/06/27 09:16:38;;;;;;;6.07;5.45;;;29.50;99.90;;;;;;5090657;27;20299;-77
2023/06/27 09:19:05;;;;;;;5.88;5.47;;;29.60;99.90;;;;;;5099028;27;20309;-77
2023/06/27 09:21:35;;;;;;;6.60;6.00;;;29.90;99.90;;;;;;5097967;27;20991;-77
2023/06/27 09:24:06;;;;;;;7.30;6.60;;;30.20;99.90;;;;;;5093212;27;22675;-77
2023/06/27 09:26:33;;;;;;;6.55;5.93;;;30.50;99.90;;;;;;5098421;27;21109;-77
2023/06/27 09:29:01;;;;;;;7.55;5.90;;;30.40;99.90;;;;;;5098573;27;20738;-78
2023/06/27 09:31:29;;;;;;;6.50;5.90;;;30.20;99.90;;;;;;5099121;27;20229;-78
2023/06/27 09:34:05;;;;;;;6.45;5.75;;;29.90;99.90;;;;;;5096255;27;20835;-77
2023/06/27 09:36:34;;;;;;;6.20;5.70;;;29.90;99.90;;;;;;5096095;27;20979;-76
2023/06/27 09:39:02;;;;;;;6.53;5.93;;;30.10;99.90;;;;;;5092330;27;20804;-77
2023/06/27 09:41:44;;;;;;;6.22;5.32;;;30.10;99.90;;;;;;5098077;27;20229;-77
2023/06/27 09:44:13;;;;;;;6.55;5.90;;;30.20;99.90;;;;;;5094090;27;20233;-76
2023/06/27 09:46:41;;;;;;;5.72;5.22;;;30.40;99.90;;;;;;5098688;27;20228;-77
2023/06/27 09:49:09;;;;;;;6.78;5.90;;;30.50;99.90;;;;;;5087879;27;20576;-77
2023/06/27 09:51:38;;;;;;;5.72;5.22;;;30.60;99.90;;;;;;5098582;27;20225;-77
2023/06/27 09:54:05;;;;;;;6.25;5.55;;;30.80;99.90;;;;;;5095261;27;20629;-77
2023/06/27 09:56:33;;;;;;;6.13;5.53;;;31.10;99.90;;;;;;5097436;27;20201;-78
2023/06/27 09:59:08;;;;;;;6.15;5.55;;;31.10;99.90;;;;;;5093287;27;21255;-77
2023/06/27 10:01:36;;;;;;;6.00;5.50;;;30.70;99.90;;;;;;5091724;27;20212;-76
2023/06/27 10:04:03;;;;;;;6.20;5.68;;;30.30;99.90;;;;;;5092803;27;20201;-76
2023/06/27 10:06:31;;;;;;;6.03;5.20;;;30.10;99.90;;;;;;5094056;27;20290;-77
2023/06/27 10:08:59;;;;;;;5.47;4.93;;;30.10;99.90;;;;;;5095553;27;20284;-77
2023/06/27 10:11:28;;;;;;;8.50;5.43;;;30.20;99.90;;;;;;5100065;27;20254;-78
2023/06/27 10:13:55;;;;;;;5.75;5.30;;;30.40;99.90;;;;;;5092233;27;20789;-78
2023/06/27 10:16:22;;;;;;;5.78;5.25;;;30.50;99.90;;;;;;5097899;27;20224;-78
2023/06/27 10:18:50;;;;;;;5.40;4.90;;;30.30;99.90;;;;;;5102560;27;20221;-76
2023/06/27 10:21:18;;;;;;;5.72;5.03;;;30.20;99.90;;;;;;5100934;27;20206;-76
2023/06/27 10:23:49;;;;;;;4.97;4.43;;;30.20;99.90;;;;;;5098273;27;20432;-77
2023/06/27 10:26:20;;;;;;;4.80;4.40;;;30.40;99.90;;;;;;5096710;27;20284;-78
2023/06/27 10:28:51;;;;;;;5.20;4.80;;;30.50;99.90;;;;;;5096722;27;20284;-78
2023/06/27 10:31:42;;;;;;;5.43;4.72;;;30.40;99.90;;;;;;5099988;27;20209;-77
2023/06/27 10:34:11;;;;;;;4.93;4.53;;;30.30;99.90;;;;;;5094323;27;20687;-78
2023/06/27 10:37:01;;;;;;;5.05;4.65;;;30.10;99.90;;;;;;5093396;27;20228;-77
2023/06/27 10:39:29;;;;;;;5.10;4.60;;;29.90;99.90;;;;;;5093864;27;20217;-77
2023/06/27 10:42:01;;;;;;;4.75;4.25;;;29.60;99.90;;;;;;5092441;28;20295;-77
2023/06/27 10:44:28;;;;;;;4.28;3.97;;;29.50;99.90;;;;;;5096267;27;20291;-77
2023/06/27 10:47:26;;;;;;;4.03;3.72;;;29.40;99.90;;;;;;5096703;27;20200;-77
2023/06/27 10:49:55;;;;;;;3.92;3.63;;;29.40;99.90;;;;;;5090635;27;20229;-76
2023/06/27 10:52:22;;;;;;;4.07;3.72;;;29.30;99.90;;;;;;5093448;27;20201;-77
2023/06/27 10:55:28;;;;;;;4.90;4.50;;;29.30;99.90;;;;;;5097716;27;20291;-77
2023/06/27 10:58:06;;;;;;;4.50;4.10;;;29.20;99.90;;;;;;5094945;27;20211;-75
2023/06/27 11:00:34;;;;;;;5.38;4.88;;;29.00;99.90;;;;;;5096186;27;20227;-75
2023/06/27 11:03:03;;;;;;;4.40;4.10;;;28.80;99.90;;;;;;5097386;27;20208;-75
2023/06/27 11:05:38;;;;;;;5.75;5.00;;;28.70;99.90;;;;;;5090368;28;20338;-74
2023/06/27 11:08:09;;;;;;;5.65;5.22;;;28.50;99.90;;;;;;5097086;27;20275;-74
2023/06/27 11:10:37;;;;;;;5.68;5.20;;;28.40;99.90;;;;;;5088885;27;20236;-74
2023/06/27 11:13:16;;;;;;;5.63;5.13;;;28.20;99.90;;;;;;5092526;28;20197;-75
2023/06/27 11:15:44;;;;;;;6.07;5.47;;;28.00;99.90;;;;;;5093419;28;20232;-75
2023/06/27 11:18:14;;;;;;;6.70;6.10;;;27.80;99.90;;;;;;5095393;28;20205;-73
2023/06/27 11:20:42;;;;;;;5.63;5.18;;;27.40;99.90;;;;;;5094354;28;20627;-75
2023/06/27 11:23:09;;;;;;;6.03;5.28;;;27.20;99.90;;;;;;5092206;28;20608;-74
2023/06/27 11:25:38;;;;;;;5.10;4.70;;;27.10;99.90;;;;;;5091027;28;20710;-75
2023/06/27 11:28:06;;;;;;;5.07;4.57;;;27.00;99.90;;;;;;5089958;28;20194;-73
2023/06/27 11:30:35;;;;;;;4.93;4.53;;;26.90;99.90;;;;;;5092558;28;20304;-75
2023/06/27 11:33:03;;;;;;;7.03;5.40;;;26.80;99.90;;;;;;5093786;28;20296;-75
2023/06/27 11:35:31;;;;;;;6.40;5.80;;;26.60;99.90;;;;;;5097061;28;20204;-75
2023/06/27 11:37:59;;;;;;;8.50;7.40;;;26.30;99.90;;;;;;5095526;28;20221;-74
2023/06/27 11:40:29;;;;;;;7.90;7.07;;;26.00;99.90;;;;;;5090841;28;20348;-74
2023/06/27 11:43:02;;;;;;;6.80;5.57;;;25.60;99.90;;;;;;5091446;28;20209;-75
2023/06/27 11:45:30;;;;;;;7.55;6.65;;;25.40;99.90;;;;;;5094259;28;20209;-75
2023/06/27 11:47:59;;;;;;;7.18;6.47;;;25.30;99.90;;;;;;5093012;28;20200;-74
2023/06/27 11:50:27;;;;;;;6.20;5.70;;;25.20;99.90;;;;;;5094413;28;20248;-73
2023/06/27 11:52:57;;;;;;;6.43;5.93;;;25.10;99.90;;;;;;5106943;28;20236;-75
2023/06/27 11:55:24;;;;;;;7.22;6.43;;;25.00;99.90;;;;;;5106554;28;20199;-74
2023/06/27 11:57:54;;;;;;;7.60;6.78;;;25.00;99.90;;;;;;5100606;28;20910;-73
2023/06/27 12:00:24;;;;;;;6.45;5.93;;;25.00;99.90;;;;;;5088479;27;20706;-73
2023/06/27 12:02:52;;;;;;;6.60;6.10;;;25.00;99.90;;;;;;5097303;27;20246;-73
2023/06/27 12:05:22;;;;;;;6.60;5.93;;;25.00;99.90;;;;;;5094118;27;20937;-73
2023/06/27 12:08:01;;;;;;;6.75;6.00;;;25.10;99.90;;;;;;5092941;27;20215;-73
2023/06/27 12:10:29;;;;;;;6.53;5.85;;;25.30;99.90;;;;;;5093661;27;20674;-74
2023/06/27 12:12:56;;;;;;;6.05;5.55;;;25.40;99.90;;;;;;5096395;27;20694;-73
2023/06/27 12:15:23;;;;;;;6.45;5.95;;;25.50;99.90;;;;;;5099280;27;20291;-73
2023/06/27 12:17:58;;;;;;;6.35;5.80;;;25.70;99.90;;;;;;5102829;27;20811;-74
2023/06/27 12:20:27;;;;;;;6.95;6.35;;;25.90;99.90;;;;;;5098923;27;20230;-74
2023/06/27 12:22:54;;;;;;;7.40;6.70;;;26.10;99.90;;;;;;5096771;27;20291;-75
2023/06/27 12:25:21;;;;;;;7.28;6.68;;;26.20;99.90;;;;;;5097637;27;20280;-75
2023/06/27 12:27:48;;;;;;;7.85;7.15;;;26.30;99.90;;;;;;5095183;27;20292;-74
2023/06/27 12:30:15;;;;;;;7.10;6.50;;;26.40;99.90;;;;;;5093597;27;20214;-73
2023/06/27 12:32:43;;;;;;;6.40;5.90;;;26.40;99.90;;;;;;5091030;28;20273;-74
2023/06/27 12:35:17;;;;;;;6.30;5.80;;;26.60;99.90;;;;;;5092579;27;20208;-73
2023/06/27 12:37:45;;;;;;;6.63;6.03;;;26.70;99.90;;;;;;5095565;27;20208;-74
2023/06/27 12:40:13;;;;;;;6.95;6.35;;;26.70;99.90;;;;;;5098251;27;20253;-74
2023/06/27 12:42:42;;;;;;;5.70;5.30;;;26.90;99.90;;;;;;5096199;27;20292;-74
2023/06/27 12:45:10;;;;;;;5.90;5.40;;;27.00;99.90;;;;;;5093518;27;21081;-74
2023/06/27 12:47:41;;;;;;;6.20;5.60;;;27.20;99.90;;;;;;5089990;27;20220;-72
2023/06/27 12:50:09;;;;;;;6.15;5.65;;;27.50;99.90;;;;;;5101637;27;20244;-75
2023/06/27 12:52:36;;;;;;;6.38;5.82;;;28.00;99.90;;;;;;5105889;27;20235;-72
2023/06/27 12:55:05;;;;;;;6.55;5.95;;;28.50;99.90;;;;;;5100897;27;20197;-71